sensor_id;sensor_type;location;lat;lon;timestamp;P1;durP1;ratioP1;P2;durP2;ratioP2
10721;SDS011;5412;59.450;18.124;2022-12-10T00:01:03;4.77;;;3.13;;
10721;SDS011;5412;59.450;18.124;2022-12-10T00:03:35;3.67;;;3.03;;
10721;SDS011;5412;59.450;18.124;2022-12-10T00:06:02;5.53;;;3.13;;
10721;SDS011;5412;59.450;18.124;2022-12-10T00:08:29;5.37;;;3.50;;
10721;SDS011;5412;59.450;18.124;2022-12-10T00:10:55;5.93;;;3.17;;
10721;SDS011;5412;59.450;18.124;2022-12-10T00:13:21;5.20;;;3.20;;
10721;SDS011;5412;59.450;18.124;2022-12-10T00:15:47;7.17;;;3.40;;
10721;SDS011;5412;59.450;18.124;2022-12-10T00:18:13;3.30;;;3.00;;
10721;SDS011;5412;59.450;18.124;2022-12-10T00:20:39;6.07;;;3.67;;
10721;SDS011;5412;59.450;18.124;2022-12-10T00:23:07;6.77;;;3.07;;
10721;SDS011;5412;59.450;18.124;2022-12-10T00:25:33;6.27;;;3.77;;
10721;SDS011;5412;59.450;18.124;2022-12-10T00:28:01;5.00;;;3.47;;
10721;SDS011;5412;59.450;18.124;2022-12-10T00:30:27;5.27;;;3.70;;
10721;SDS011;5412;59.450;18.124;2022-12-10T00:32:53;18.20;;;9.40;;
10721;SDS011;5412;59.450;18.124;2022-12-10T00:35:18;4.93;;;3.40;;
10721;SDS011;5412;59.450;18.124;2022-12-10T00:37:44;6.37;;;3.97;;
10721;SDS011;5412;59.450;18.124;2022-12-10T00:40:10;5.90;;;4.10;;
10721;SDS011;5412;59.450;18.124;2022-12-10T00:42:36;7.53;;;3.67;;
10721;SDS011;5412;59.450;18.124;2022-12-10T00:45:05;4.53;;;3.70;;
10721;SDS011;5412;59.450;18.124;2022-12-10T00:47:31;6.40;;;4.50;;
10721;SDS011;5412;59.450;18.124;2022-12-10T00:49:59;5.27;;;3.67;;
10721;SDS011;5412;59.450;18.124;2022-12-10T00:52:25;5.43;;;3.63;;
10721;SDS011;5412;59.450;18.124;2022-12-10T00:54:51;5.27;;;3.40;;
10721;SDS011;5412;59.450;18.124;2022-12-10T00:57:16;5.77;;;3.47;;
10721;SDS011;5412;59.450;18.124;2022-12-10T00:59:42;6.20;;;4.27;;
10721;SDS011;5412;59.450;18.124;2022-12-10T01:02:08;5.67;;;3.60;;
10721;SDS011;5412;59.450;18.124;2022-12-10T01:04:33;9.47;;;4.23;;
10721;SDS011;5412;59.450;18.124;2022-12-10T01:06:59;7.17;;;4.10;;
10721;SDS011;5412;59.450;18.124;2022-12-10T01:09:26;5.83;;;4.10;;
10721;SDS011;5412;59.450;18.124;2022-12-10T01:11:54;8.27;;;4.30;;
10721;SDS011;5412;59.450;18.124;2022-12-10T01:14:24;6.57;;;4.07;;
10721;SDS011;5412;59.450;18.124;2022-12-10T01:16:56;5.57;;;4.17;;
10721;SDS011;5412;59.450;18.124;2022-12-10T01:19:23;10.07;;;3.73;;
10721;SDS011;5412;59.450;18.124;2022-12-10T01:21:50;5.40;;;3.43;;
10721;SDS011;5412;59.450;18.124;2022-12-10T01:24:17;4.77;;;3.63;;
10721;SDS011;5412;59.450;18.124;2022-12-10T01:26:42;5.30;;;3.43;;
10721;SDS011;5412;59.450;18.124;2022-12-10T01:29:09;5.80;;;3.80;;
10721;SDS011;5412;59.450;18.124;2022-12-10T01:31:36;5.33;;;3.63;;
10721;SDS011;5412;59.450;18.124;2022-12-10T01:34:03;5.97;;;3.53;;
10721;SDS011;5412;59.450;18.124;2022-12-10T01:36:34;3.97;;;2.97;;
10721;SDS011;5412;59.450;18.124;2022-12-10T01:39:02;5.90;;;3.50;;
10721;SDS011;5412;59.450;18.124;2022-12-10T01:41:30;5.40;;;3.53;;
10721;SDS011;5412;59.450;18.124;2022-12-10T01:44:53;7.27;;;3.60;;
10721;SDS011;5412;59.450;18.124;2022-12-10T01:46:48;3.80;;;2.80;;
10721;SDS011;5412;59.450;18.124;2022-12-10T01:49:21;4.30;;;2.80;;
10721;SDS011;5412;59.450;18.124;2022-12-10T01:51:49;4.70;;;2.67;;
10721;SDS011;5412;59.450;18.124;2022-12-10T01:54:25;3.90;;;2.80;;
10721;SDS011;5412;59.450;18.124;2022-12-10T01:56:56;5.70;;;3.13;;
10721;SDS011;5412;59.450;18.124;2022-12-10T01:59:24;5.57;;;2.90;;
10721;SDS011;5412;59.450;18.124;2022-12-10T02:09:43;4.13;;;2.60;;
10721;SDS011;5412;59.450;18.124;2022-12-10T02:15:23;3.10;;;2.47;;
10721;SDS011;5412;59.450;18.124;2022-12-10T02:17:56;3.97;;;2.90;;
10721;SDS011;5412;59.450;18.124;2022-12-10T02:22:56;5.17;;;3.27;;
10721;SDS011;5412;59.450;18.124;2022-12-10T02:25:46;4.00;;;2.50;;
10721;SDS011;5412;59.450;18.124;2022-12-10T02:28:51;4.33;;;3.13;;
10721;SDS011;5412;59.450;18.124;2022-12-10T02:31:28;4.33;;;3.40;;
10721;SDS011;5412;59.450;18.124;2022-12-10T02:33:57;4.20;;;3.17;;
10721;SDS011;5412;59.450;18.124;2022-12-10T02:36:25;3.87;;;2.77;;
10721;SDS011;5412;59.450;18.124;2022-12-10T02:38:55;4.37;;;3.10;;
10721;SDS011;5412;59.450;18.124;2022-12-10T02:41:24;3.50;;;2.70;;
10721;SDS011;5412;59.450;18.124;2022-12-10T02:43:53;3.83;;;2.90;;
10721;SDS011;5412;59.450;18.124;2022-12-10T02:46:21;8.37;;;2.87;;
10721;SDS011;5412;59.450;18.124;2022-12-10T02:48:49;3.10;;;2.53;;
10721;SDS011;5412;59.450;18.124;2022-12-10T02:51:16;4.17;;;3.00;;
10721;SDS011;5412;59.450;18.124;2022-12-10T02:53:43;3.67;;;2.77;;
10721;SDS011;5412;59.450;18.124;2022-12-10T03:04:26;4.47;;;3.30;;
10721;SDS011;5412;59.450;18.124;2022-12-10T03:07:00;5.33;;;3.47;;
10721;SDS011;5412;59.450;18.124;2022-12-10T03:09:39;5.43;;;3.70;;
10721;SDS011;5412;59.450;18.124;2022-12-10T03:12:17;3.67;;;3.27;;
10721;SDS011;5412;59.450;18.124;2022-12-10T03:14:46;3.33;;;3.00;;
10721;SDS011;5412;59.450;18.124;2022-12-10T03:17:13;4.67;;;3.40;;
10721;SDS011;5412;59.450;18.124;2022-12-10T03:19:43;3.37;;;2.60;;
10721;SDS011;5412;59.450;18.124;2022-12-10T03:22:12;4.10;;;3.13;;
10721;SDS011;5412;59.450;18.124;2022-12-10T03:24:39;4.43;;;3.60;;
10721;SDS011;5412;59.450;18.124;2022-12-10T03:27:06;4.27;;;3.27;;
10721;SDS011;5412;59.450;18.124;2022-12-10T03:29:34;4.07;;;2.97;;
10721;SDS011;5412;59.450;18.124;2022-12-10T03:32:04;4.17;;;3.40;;
10721;SDS011;5412;59.450;18.124;2022-12-10T03:34:32;3.17;;;2.50;;
10721;SDS011;5412;59.450;18.124;2022-12-10T03:36:58;4.13;;;2.90;;
10721;SDS011;5412;59.450;18.124;2022-12-10T03:39:24;2.97;;;2.63;;
10721;SDS011;5412;59.450;18.124;2022-12-10T03:41:51;2.57;;;2.20;;
10721;SDS011;5412;59.450;18.124;2022-12-10T03:44:33;3.10;;;2.53;;
10721;SDS011;5412;59.450;18.124;2022-12-10T03:47:03;3.20;;;2.40;;
10721;SDS011;5412;59.450;18.124;2022-12-10T03:49:30;2.70;;;2.27;;
10721;SDS011;5412;59.450;18.124;2022-12-10T03:51:56;3.63;;;2.53;;
10721;SDS011;5412;59.450;18.124;2022-12-10T03:54:22;3.37;;;3.07;;
10721;SDS011;5412;59.450;18.124;2022-12-10T03:56:47;2.90;;;2.20;;
10721;SDS011;5412;59.450;18.124;2022-12-10T03:59:14;2.70;;;2.13;;
10721;SDS011;5412;59.450;18.124;2022-12-10T04:01:40;2.73;;;2.23;;
10721;SDS011;5412;59.450;18.124;2022-12-10T04:04:06;2.13;;;1.93;;
10721;SDS011;5412;59.450;18.124;2022-12-10T04:06:32;2.43;;;2.20;;
10721;SDS011;5412;59.450;18.124;2022-12-10T04:08:58;2.23;;;2.03;;
10721;SDS011;5412;59.450;18.124;2022-12-10T04:11:24;2.33;;;2.10;;
10721;SDS011;5412;59.450;18.124;2022-12-10T04:13:51;2.20;;;2.00;;
10721;SDS011;5412;59.450;18.124;2022-12-10T04:16:35;2.27;;;2.03;;
10721;SDS011;5412;59.450;18.124;2022-12-10T04:19:03;3.43;;;1.97;;
10721;SDS011;5412;59.450;18.124;2022-12-10T04:21:37;2.50;;;2.30;;
10721;SDS011;5412;59.450;18.124;2022-12-10T04:24:27;2.17;;;1.97;;
10721;SDS011;5412;59.450;18.124;2022-12-10T04:27:21;2.30;;;2.10;;
10721;SDS011;5412;59.450;18.124;2022-12-10T04:29:52;2.10;;;1.70;;
10721;SDS011;5412;59.450;18.124;2022-12-10T04:32:19;2.50;;;1.93;;
10721;SDS011;5412;59.450;18.124;2022-12-10T04:34:45;2.23;;;2.00;;
10721;SDS011;5412;59.450;18.124;2022-12-10T04:37:12;2.20;;;1.93;;
10721;SDS011;5412;59.450;18.124;2022-12-10T04:39:39;2.43;;;2.20;;
10721;SDS011;5412;59.450;18.124;2022-12-10T04:42:05;2.80;;;2.30;;
10721;SDS011;5412;59.450;18.124;2022-12-10T04:44:31;3.63;;;2.20;;
10721;SDS011;5412;59.450;18.124;2022-12-10T04:46:57;2.43;;;2.07;;
10721;SDS011;5412;59.450;18.124;2022-12-10T04:49:23;2.43;;;2.07;;
10721;SDS011;5412;59.450;18.124;2022-12-10T04:51:49;2.67;;;2.33;;
10721;SDS011;5412;59.450;18.124;2022-12-10T04:54:15;2.27;;;2.07;;
10721;SDS011;5412;59.450;18.124;2022-12-10T04:56:41;2.40;;;1.90;;
10721;SDS011;5412;59.450;18.124;2022-12-10T04:59:08;2.30;;;2.10;;
10721;SDS011;5412;59.450;18.124;2022-12-10T05:01:34;2.80;;;2.13;;
10721;SDS011;5412;59.450;18.124;2022-12-10T05:04:02;2.23;;;1.93;;
10721;SDS011;5412;59.450;18.124;2022-12-10T05:06:30;2.90;;;1.80;;
10721;SDS011;5412;59.450;18.124;2022-12-10T05:08:56;2.87;;;2.20;;
10721;SDS011;5412;59.450;18.124;2022-12-10T05:11:23;2.07;;;1.87;;
10721;SDS011;5412;59.450;18.124;2022-12-10T05:13:51;2.13;;;1.93;;
10721;SDS011;5412;59.450;18.124;2022-12-10T05:16:19;4.23;;;2.50;;
10721;SDS011;5412;59.450;18.124;2022-12-10T05:18:46;2.57;;;2.13;;
10721;SDS011;5412;59.450;18.124;2022-12-10T05:21:13;2.37;;;2.00;;
10721;SDS011;5412;59.450;18.124;2022-12-10T05:23:42;2.10;;;1.97;;
10721;SDS011;5412;59.450;18.124;2022-12-10T05:26:10;2.40;;;2.00;;
10721;SDS011;5412;59.450;18.124;2022-12-10T05:28:48;2.20;;;2.00;;
10721;SDS011;5412;59.450;18.124;2022-12-10T05:31:20;2.10;;;1.80;;
10721;SDS011;5412;59.450;18.124;2022-12-10T05:33:51;2.33;;;1.90;;
10721;SDS011;5412;59.450;18.124;2022-12-10T05:36:19;2.23;;;1.80;;
10721;SDS011;5412;59.450;18.124;2022-12-10T05:38:46;2.07;;;1.90;;
10721;SDS011;5412;59.450;18.124;2022-12-10T05:41:17;2.43;;;2.07;;
10721;SDS011;5412;59.450;18.124;2022-12-10T05:43:44;2.53;;;2.00;;
10721;SDS011;5412;59.450;18.124;2022-12-10T05:46:11;1.80;;;1.70;;
10721;SDS011;5412;59.450;18.124;2022-12-10T05:48:39;1.97;;;1.80;;
10721;SDS011;5412;59.450;18.124;2022-12-10T05:51:10;2.20;;;1.97;;
10721;SDS011;5412;59.450;18.124;2022-12-10T05:53:38;3.13;;;1.97;;
10721;SDS011;5412;59.450;18.124;2022-12-10T05:56:06;3.07;;;2.17;;
10721;SDS011;5412;59.450;18.124;2022-12-10T05:58:33;1.93;;;1.70;;
10721;SDS011;5412;59.450;18.124;2022-12-10T06:01:00;2.47;;;1.70;;
10721;SDS011;5412;59.450;18.124;2022-12-10T06:03:30;1.97;;;1.73;;
10721;SDS011;5412;59.450;18.124;2022-12-10T06:05:56;2.17;;;1.80;;
10721;SDS011;5412;59.450;18.124;2022-12-10T06:08:22;2.03;;;1.83;;
10721;SDS011;5412;59.450;18.124;2022-12-10T06:10:48;3.47;;;2.00;;
10721;SDS011;5412;59.450;18.124;2022-12-10T06:13:13;2.83;;;2.03;;
10721;SDS011;5412;59.450;18.124;2022-12-10T06:15:40;2.60;;;2.00;;
10721;SDS011;5412;59.450;18.124;2022-12-10T06:18:06;2.30;;;1.87;;
10721;SDS011;5412;59.450;18.124;2022-12-10T06:20:32;3.43;;;1.83;;
10721;SDS011;5412;59.450;18.124;2022-12-10T06:22:57;2.63;;;1.97;;
10721;SDS011;5412;59.450;18.124;2022-12-10T06:25:23;1.80;;;1.70;;
10721;SDS011;5412;59.450;18.124;2022-12-10T06:27:49;2.20;;;2.00;;
10721;SDS011;5412;59.450;18.124;2022-12-10T06:30:15;2.60;;;1.97;;
10721;SDS011;5412;59.450;18.124;2022-12-10T06:32:41;2.00;;;1.80;;
10721;SDS011;5412;59.450;18.124;2022-12-10T06:35:08;4.17;;;2.10;;
10721;SDS011;5412;59.450;18.124;2022-12-10T06:37:35;2.00;;;1.80;;
10721;SDS011;5412;59.450;18.124;2022-12-10T06:40:02;3.00;;;1.70;;
10721;SDS011;5412;59.450;18.124;2022-12-10T06:42:28;3.57;;;2.20;;
10721;SDS011;5412;59.450;18.124;2022-12-10T06:44:54;3.00;;;2.37;;
10721;SDS011;5412;59.450;18.124;2022-12-10T06:47:19;2.77;;;2.10;;
10721;SDS011;5412;59.450;18.124;2022-12-10T06:49:45;3.53;;;2.27;;
10721;SDS011;5412;59.450;18.124;2022-12-10T06:52:11;2.20;;;2.00;;
10721;SDS011;5412;59.450;18.124;2022-12-10T06:54:37;2.93;;;2.17;;
10721;SDS011;5412;59.450;18.124;2022-12-10T06:57:02;2.43;;;2.23;;
10721;SDS011;5412;59.450;18.124;2022-12-10T06:59:28;2.10;;;1.90;;
10721;SDS011;5412;59.450;18.124;2022-12-10T07:01:54;3.63;;;2.30;;
10721;SDS011;5412;59.450;18.124;2022-12-10T07:04:19;3.87;;;2.10;;
10721;SDS011;5412;59.450;18.124;2022-12-10T07:06:45;3.30;;;2.27;;
10721;SDS011;5412;59.450;18.124;2022-12-10T07:09:11;2.53;;;2.20;;
10721;SDS011;5412;59.450;18.124;2022-12-10T07:11:37;2.23;;;1.97;;
10721;SDS011;5412;59.450;18.124;2022-12-10T07:14:03;2.50;;;2.10;;
10721;SDS011;5412;59.450;18.124;2022-12-10T07:16:29;2.10;;;1.90;;
10721;SDS011;5412;59.450;18.124;2022-12-10T07:18:57;2.63;;;2.03;;
10721;SDS011;5412;59.450;18.124;2022-12-10T07:21:29;2.73;;;2.17;;
10721;SDS011;5412;59.450;18.124;2022-12-10T07:23:57;2.73;;;2.20;;
10721;SDS011;5412;59.450;18.124;2022-12-10T07:26:30;3.27;;;2.40;;
10721;SDS011;5412;59.450;18.124;2022-12-10T07:28:58;2.17;;;1.97;;
10721;SDS011;5412;59.450;18.124;2022-12-10T07:31:24;2.53;;;2.20;;
10721;SDS011;5412;59.450;18.124;2022-12-10T07:33:51;3.13;;;2.33;;
10721;SDS011;5412;59.450;18.124;2022-12-10T07:36:18;2.10;;;1.73;;
10721;SDS011;5412;59.450;18.124;2022-12-10T07:38:44;2.23;;;2.03;;
10721;SDS011;5412;59.450;18.124;2022-12-10T07:41:10;2.97;;;2.20;;
10721;SDS011;5412;59.450;18.124;2022-12-10T07:43:38;2.90;;;2.33;;
10721;SDS011;5412;59.450;18.124;2022-12-10T07:46:16;3.03;;;2.40;;
10721;SDS011;5412;59.450;18.124;2022-12-10T07:48:45;3.00;;;2.60;;
10721;SDS011;5412;59.450;18.124;2022-12-10T07:51:12;2.77;;;2.37;;
10721;SDS011;5412;59.450;18.124;2022-12-10T07:53:38;2.77;;;2.40;;
10721;SDS011;5412;59.450;18.124;2022-12-10T07:56:04;2.63;;;2.23;;
10721;SDS011;5412;59.450;18.124;2022-12-10T07:58:31;2.60;;;2.40;;
10721;SDS011;5412;59.450;18.124;2022-12-10T08:00:57;2.83;;;2.37;;
10721;SDS011;5412;59.450;18.124;2022-12-10T08:03:23;2.77;;;2.33;;
10721;SDS011;5412;59.450;18.124;2022-12-10T08:05:49;2.93;;;2.43;;
10721;SDS011;5412;59.450;18.124;2022-12-10T08:08:35;3.57;;;2.53;;
10721;SDS011;5412;59.450;18.124;2022-12-10T08:11:02;3.07;;;2.43;;
10721;SDS011;5412;59.450;18.124;2022-12-10T08:13:31;4.10;;;2.80;;
10721;SDS011;5412;59.450;18.124;2022-12-10T08:16:02;3.33;;;2.50;;
10721;SDS011;5412;59.450;18.124;2022-12-10T08:18:33;3.33;;;2.53;;
10721;SDS011;5412;59.450;18.124;2022-12-10T08:21:03;3.03;;;2.53;;
10721;SDS011;5412;59.450;18.124;2022-12-10T08:23:39;3.33;;;2.33;;
10721;SDS011;5412;59.450;18.124;2022-12-10T08:26:07;3.30;;;2.77;;
10721;SDS011;5412;59.450;18.124;2022-12-10T08:28:34;2.77;;;2.40;;
10721;SDS011;5412;59.450;18.124;2022-12-10T08:31:00;5.40;;;3.10;;
10721;SDS011;5412;59.450;18.124;2022-12-10T08:33:27;2.77;;;2.30;;
10721;SDS011;5412;59.450;18.124;2022-12-10T08:35:56;4.17;;;2.87;;
10721;SDS011;5412;59.450;18.124;2022-12-10T08:38:23;3.37;;;2.53;;
10721;SDS011;5412;59.450;18.124;2022-12-10T08:40:49;3.47;;;2.87;;
10721;SDS011;5412;59.450;18.124;2022-12-10T08:43:14;3.93;;;2.67;;
10721;SDS011;5412;59.450;18.124;2022-12-10T08:45:40;3.03;;;2.73;;
10721;SDS011;5412;59.450;18.124;2022-12-10T08:48:06;4.57;;;3.10;;
10721;SDS011;5412;59.450;18.124;2022-12-10T08:50:31;4.00;;;2.90;;
10721;SDS011;5412;59.450;18.124;2022-12-10T08:52:57;2.73;;;2.33;;
10721;SDS011;5412;59.450;18.124;2022-12-10T08:55:24;4.33;;;3.00;;
10721;SDS011;5412;59.450;18.124;2022-12-10T08:57:50;4.27;;;3.00;;
10721;SDS011;5412;59.450;18.124;2022-12-10T09:00:16;4.20;;;2.87;;
10721;SDS011;5412;59.450;18.124;2022-12-10T09:02:41;3.77;;;2.47;;
10721;SDS011;5412;59.450;18.124;2022-12-10T09:05:07;4.57;;;3.40;;
10721;SDS011;5412;59.450;18.124;2022-12-10T09:07:33;5.87;;;3.17;;
10721;SDS011;5412;59.450;18.124;2022-12-10T09:09:59;4.97;;;2.70;;
10721;SDS011;5412;59.450;18.124;2022-12-10T09:12:25;3.37;;;2.70;;
10721;SDS011;5412;59.450;18.124;2022-12-10T09:14:50;3.40;;;2.83;;
10721;SDS011;5412;59.450;18.124;2022-12-10T09:17:16;4.20;;;2.90;;
10721;SDS011;5412;59.450;18.124;2022-12-10T09:19:42;4.83;;;2.90;;
10721;SDS011;5412;59.450;18.124;2022-12-10T09:22:08;4.60;;;3.00;;
10721;SDS011;5412;59.450;18.124;2022-12-10T09:24:33;4.03;;;3.03;;
10721;SDS011;5412;59.450;18.124;2022-12-10T09:27:00;4.50;;;3.20;;
10721;SDS011;5412;59.450;18.124;2022-12-10T09:29:26;4.60;;;3.40;;
10721;SDS011;5412;59.450;18.124;2022-12-10T09:31:52;4.33;;;3.03;;
10721;SDS011;5412;59.450;18.124;2022-12-10T09:34:17;5.73;;;3.37;;
10721;SDS011;5412;59.450;18.124;2022-12-10T09:36:44;4.47;;;3.17;;
10721;SDS011;5412;59.450;18.124;2022-12-10T09:39:10;3.43;;;3.00;;
10721;SDS011;5412;59.450;18.124;2022-12-10T09:44:55;3.80;;;2.80;;
10721;SDS011;5412;59.450;18.124;2022-12-10T09:47:21;3.97;;;3.20;;
10721;SDS011;5412;59.450;18.124;2022-12-10T09:50:00;4.53;;;3.20;;
10721;SDS011;5412;59.450;18.124;2022-12-10T09:52:29;6.03;;;3.50;;
10721;SDS011;5412;59.450;18.124;2022-12-10T09:55:11;3.73;;;2.73;;
10721;SDS011;5412;59.450;18.124;2022-12-10T09:57:44;4.73;;;3.13;;
10721;SDS011;5412;59.450;18.124;2022-12-10T10:00:23;5.57;;;3.50;;
10721;SDS011;5412;59.450;18.124;2022-12-10T10:03:02;5.80;;;3.40;;
10721;SDS011;5412;59.450;18.124;2022-12-10T10:05:29;4.00;;;3.47;;
10721;SDS011;5412;59.450;18.124;2022-12-10T10:08:01;3.23;;;2.80;;
10721;SDS011;5412;59.450;18.124;2022-12-10T10:10:37;4.77;;;3.50;;
10721;SDS011;5412;59.450;18.124;2022-12-10T10:15:41;3.53;;;3.00;;
10721;SDS011;5412;59.450;18.124;2022-12-10T10:18:11;6.20;;;3.00;;
10721;SDS011;5412;59.450;18.124;2022-12-10T10:20:41;3.47;;;2.80;;
10721;SDS011;5412;59.450;18.124;2022-12-10T10:23:08;4.20;;;2.73;;
10721;SDS011;5412;59.450;18.124;2022-12-10T10:25:37;3.83;;;3.03;;
10721;SDS011;5412;59.450;18.124;2022-12-10T10:28:03;4.20;;;2.97;;
10721;SDS011;5412;59.450;18.124;2022-12-10T10:30:29;4.23;;;3.13;;
10721;SDS011;5412;59.450;18.124;2022-12-10T10:32:56;5.37;;;3.87;;
10721;SDS011;5412;59.450;18.124;2022-12-10T10:37:48;3.47;;;2.90;;
10721;SDS011;5412;59.450;18.124;2022-12-10T10:40:24;4.77;;;3.20;;
10721;SDS011;5412;59.450;18.124;2022-12-10T10:42:57;4.13;;;2.93;;
10721;SDS011;5412;59.450;18.124;2022-12-10T10:45:58;3.80;;;2.73;;
10721;SDS011;5412;59.450;18.124;2022-12-10T10:48:20;4.63;;;3.27;;
10721;SDS011;5412;59.450;18.124;2022-12-10T10:50:49;3.77;;;3.00;;
10721;SDS011;5412;59.450;18.124;2022-12-10T10:53:20;4.70;;;3.03;;
10721;SDS011;5412;59.450;18.124;2022-12-10T10:55:53;5.07;;;3.17;;
10721;SDS011;5412;59.450;18.124;2022-12-10T10:58:22;4.67;;;2.80;;
10721;SDS011;5412;59.450;18.124;2022-12-10T11:00:53;4.27;;;2.60;;
10721;SDS011;5412;59.450;18.124;2022-12-10T11:03:20;3.53;;;3.20;;
10721;SDS011;5412;59.450;18.124;2022-12-10T11:05:47;4.93;;;3.00;;
10721;SDS011;5412;59.450;18.124;2022-12-10T11:08:13;3.33;;;2.70;;
10721;SDS011;5412;59.450;18.124;2022-12-10T11:10:55;3.97;;;3.10;;
10721;SDS011;5412;59.450;18.124;2022-12-10T11:13:41;4.20;;;2.93;;
10721;SDS011;5412;59.450;18.124;2022-12-10T11:18:39;5.03;;;3.00;;
10721;SDS011;5412;59.450;18.124;2022-12-10T11:23:42;4.10;;;2.90;;
10721;SDS011;5412;59.450;18.124;2022-12-10T11:29:38;2.83;;;2.53;;
10721;SDS011;5412;59.450;18.124;2022-12-10T11:38:20;3.87;;;2.80;;
10721;SDS011;5412;59.450;18.124;2022-12-10T11:49:20;4.90;;;2.60;;
10721;SDS011;5412;59.450;18.124;2022-12-10T11:59:29;4.40;;;2.90;;
10721;SDS011;5412;59.450;18.124;2022-12-10T12:07:46;4.37;;;3.00;;
10721;SDS011;5412;59.450;18.124;2022-12-10T12:13:31;5.90;;;2.70;;
10721;SDS011;5412;59.450;18.124;2022-12-10T12:16:04;4.53;;;2.97;;
10721;SDS011;5412;59.450;18.124;2022-12-10T12:18:42;3.93;;;2.60;;
10721;SDS011;5412;59.450;18.124;2022-12-10T12:21:18;4.37;;;2.80;;
10721;SDS011;5412;59.450;18.124;2022-12-10T12:23:51;4.27;;;2.63;;
10721;SDS011;5412;59.450;18.124;2022-12-10T12:26:36;4.57;;;2.87;;
10721;SDS011;5412;59.450;18.124;2022-12-10T12:31:46;4.67;;;3.07;;
10721;SDS011;5412;59.450;18.124;2022-12-10T12:37:14;6.53;;;2.50;;
10721;SDS011;5412;59.450;18.124;2022-12-10T12:39:56;3.43;;;2.40;;
10721;SDS011;5412;59.450;18.124;2022-12-10T12:42:27;3.23;;;2.67;;
10721;SDS011;5412;59.450;18.124;2022-12-10T12:45:01;3.53;;;2.30;;
10721;SDS011;5412;59.450;18.124;2022-12-10T12:47:49;3.30;;;2.60;;
10721;SDS011;5412;59.450;18.124;2022-12-10T12:53:12;3.97;;;2.67;;
10721;SDS011;5412;59.450;18.124;2022-12-10T13:01:21;3.93;;;2.50;;
10721;SDS011;5412;59.450;18.124;2022-12-10T13:03:50;3.83;;;2.60;;
10721;SDS011;5412;59.450;18.124;2022-12-10T13:06:20;3.27;;;2.70;;
10721;SDS011;5412;59.450;18.124;2022-12-10T13:23:00;4.07;;;2.50;;
10721;SDS011;5412;59.450;18.124;2022-12-10T13:28:25;3.53;;;2.43;;
10721;SDS011;5412;59.450;18.124;2022-12-10T13:33:47;5.27;;;2.50;;
10721;SDS011;5412;59.450;18.124;2022-12-10T13:39:34;3.23;;;2.17;;
10721;SDS011;5412;59.450;18.124;2022-12-10T13:50:20;3.13;;;2.13;;
10721;SDS011;5412;59.450;18.124;2022-12-10T14:06:49;3.37;;;2.40;;
10721;SDS011;5412;59.450;18.124;2022-12-10T14:11:56;4.73;;;2.87;;
10721;SDS011;5412;59.450;18.124;2022-12-10T14:14:34;6.60;;;3.47;;
10721;SDS011;5412;59.450;18.124;2022-12-10T14:17:09;4.90;;;3.00;;
10721;SDS011;5412;59.450;18.124;2022-12-10T14:19:36;3.40;;;2.47;;
10721;SDS011;5412;59.450;18.124;2022-12-10T14:22:05;5.67;;;3.13;;
10721;SDS011;5412;59.450;18.124;2022-12-10T14:24:37;4.83;;;2.67;;
10721;SDS011;5412;59.450;18.124;2022-12-10T14:27:15;4.13;;;2.50;;
10721;SDS011;5412;59.450;18.124;2022-12-10T14:29:50;5.43;;;2.67;;
10721;SDS011;5412;59.450;18.124;2022-12-10T14:32:37;2.50;;;2.10;;
10721;SDS011;5412;59.450;18.124;2022-12-10T14:35:04;2.67;;;2.27;;
10721;SDS011;5412;59.450;18.124;2022-12-10T14:37:35;4.63;;;2.50;;
10721;SDS011;5412;59.450;18.124;2022-12-10T14:40:04;3.97;;;2.40;;
10721;SDS011;5412;59.450;18.124;2022-12-10T14:42:31;3.90;;;2.50;;
10721;SDS011;5412;59.450;18.124;2022-12-10T14:44:57;4.13;;;2.40;;
10721;SDS011;5412;59.450;18.124;2022-12-10T14:47:25;4.07;;;2.33;;
10721;SDS011;5412;59.450;18.124;2022-12-10T14:49:53;4.93;;;2.63;;
10721;SDS011;5412;59.450;18.124;2022-12-10T14:52:21;4.40;;;2.60;;
10721;SDS011;5412;59.450;18.124;2022-12-10T14:54:49;5.43;;;2.83;;
10721;SDS011;5412;59.450;18.124;2022-12-10T14:57:26;3.13;;;2.37;;
10721;SDS011;5412;59.450;18.124;2022-12-10T15:00:17;5.27;;;2.53;;
10721;SDS011;5412;59.450;18.124;2022-12-10T15:02:45;3.57;;;2.87;;
10721;SDS011;5412;59.450;18.124;2022-12-10T15:05:33;3.73;;;2.50;;
10721;SDS011;5412;59.450;18.124;2022-12-10T15:08:00;3.10;;;2.23;;
10721;SDS011;5412;59.450;18.124;2022-12-10T15:10:49;3.93;;;2.67;;
10721;SDS011;5412;59.450;18.124;2022-12-10T15:16:02;4.67;;;3.03;;
10721;SDS011;5412;59.450;18.124;2022-12-10T15:18:32;3.43;;;3.00;;
10721;SDS011;5412;59.450;18.124;2022-12-10T15:21:12;3.43;;;2.43;;
10721;SDS011;5412;59.450;18.124;2022-12-10T15:23:46;5.37;;;2.90;;
10721;SDS011;5412;59.450;18.124;2022-12-10T15:26:18;4.13;;;2.73;;
10721;SDS011;5412;59.450;18.124;2022-12-10T15:28:50;3.07;;;2.50;;
10721;SDS011;5412;59.450;18.124;2022-12-10T15:38:56;3.50;;;2.20;;
10721;SDS011;5412;59.450;18.124;2022-12-10T15:41:42;2.77;;;1.80;;
10721;SDS011;5412;59.450;18.124;2022-12-10T15:44:45;3.10;;;2.57;;
10721;SDS011;5412;59.450;18.124;2022-12-10T15:49:35;4.33;;;2.20;;
10721;SDS011;5412;59.450;18.124;2022-12-10T15:52:01;3.80;;;2.00;;
10721;SDS011;5412;59.450;18.124;2022-12-10T15:54:35;3.13;;;2.20;;
10721;SDS011;5412;59.450;18.124;2022-12-10T15:57:21;2.13;;;1.80;;
10721;SDS011;5412;59.450;18.124;2022-12-10T16:00:06;5.00;;;2.03;;
10721;SDS011;5412;59.450;18.124;2022-12-10T16:02:40;4.93;;;2.93;;
10721;SDS011;5412;59.450;18.124;2022-12-10T16:07:47;4.23;;;2.00;;
10721;SDS011;5412;59.450;18.124;2022-12-10T16:10:19;3.27;;;2.20;;
10721;SDS011;5412;59.450;18.124;2022-12-10T16:12:55;4.03;;;2.20;;
10721;SDS011;5412;59.450;18.124;2022-12-10T16:15:34;2.67;;;2.10;;
10721;SDS011;5412;59.450;18.124;2022-12-10T16:18:07;2.88;;;2.25;;
10721;SDS011;5412;59.450;18.124;2022-12-10T16:20:40;3.53;;;2.57;;
10721;SDS011;5412;59.450;18.124;2022-12-10T16:23:09;3.57;;;2.10;;
10721;SDS011;5412;59.450;18.124;2022-12-10T16:25:38;3.67;;;2.40;;
10721;SDS011;5412;59.450;18.124;2022-12-10T16:28:10;3.03;;;2.27;;
10721;SDS011;5412;59.450;18.124;2022-12-10T16:30:44;2.50;;;1.80;;
10721;SDS011;5412;59.450;18.124;2022-12-10T16:33:13;2.93;;;2.20;;
10721;SDS011;5412;59.450;18.124;2022-12-10T16:35:43;4.40;;;2.10;;
10721;SDS011;5412;59.450;18.124;2022-12-10T16:38:10;1.60;;;1.50;;
10721;SDS011;5412;59.450;18.124;2022-12-10T16:40:36;2.53;;;1.80;;
10721;SDS011;5412;59.450;18.124;2022-12-10T16:43:05;4.63;;;2.47;;
10721;SDS011;5412;59.450;18.124;2022-12-10T16:45:41;4.33;;;2.83;;
10721;SDS011;5412;59.450;18.124;2022-12-10T16:48:08;2.90;;;2.07;;
10721;SDS011;5412;59.450;18.124;2022-12-10T16:50:34;2.67;;;2.13;;
10721;SDS011;5412;59.450;18.124;2022-12-10T16:53:01;2.93;;;1.77;;
10721;SDS011;5412;59.450;18.124;2022-12-10T16:55:36;2.87;;;2.10;;
10721;SDS011;5412;59.450;18.124;2022-12-10T16:58:02;4.53;;;2.07;;
10721;SDS011;5412;59.450;18.124;2022-12-10T17:00:28;1.90;;;1.80;;
10721;SDS011;5412;59.450;18.124;2022-12-10T17:02:54;3.17;;;2.33;;
10721;SDS011;5412;59.450;18.124;2022-12-10T17:07:56;2.60;;;1.77;;
10721;SDS011;5412;59.450;18.124;2022-12-10T17:10:23;2.90;;;1.97;;
10721;SDS011;5412;59.450;18.124;2022-12-10T17:13:12;1.90;;;1.80;;
10721;SDS011;5412;59.450;18.124;2022-12-10T17:15:40;2.40;;;2.00;;
10721;SDS011;5412;59.450;18.124;2022-12-10T17:18:14;4.10;;;2.20;;
10721;SDS011;5412;59.450;18.124;2022-12-10T17:20:41;2.87;;;2.17;;
10721;SDS011;5412;59.450;18.124;2022-12-10T17:23:07;2.77;;;2.10;;
10721;SDS011;5412;59.450;18.124;2022-12-10T17:25:32;2.93;;;2.10;;
10721;SDS011;5412;59.450;18.124;2022-12-10T17:27:59;4.73;;;2.30;;
10721;SDS011;5412;59.450;18.124;2022-12-10T17:30:24;2.33;;;2.03;;
10721;SDS011;5412;59.450;18.124;2022-12-10T17:32:50;2.63;;;2.00;;